Time;durP1;ratioP1;P1;durP2;ratioP2;P2;SDS_P1;SDS_P2;PMS_P1;PMS_P2;Temp;Humidity;BMP_temperature;BMP_pressure;BME280_temperature;BME280_humidity;BME280_pressure;Samples;Min_cycle;Max_cycle;Signal;HPM_P1;HPM_P2
2022/06/15 00:03:49;;;;;;;2.85;1.70;;;;;;;16.65;48.20;100267.91;7655236;32;40777;-75
2022/06/15 00:08:06;;;;;;;2.87;1.60;;;;;;;16.52;49.05;100272.25;7656525;32;37963;-74
2022/06/15 00:12:22;;;;;;;3.37;1.62;;;;;;;16.34;49.46;100268.38;7642659;32;37039;-75
2022/06/15 00:16:38;;;;;;;5.03;1.60;;;;;;;16.39;50.16;100272.19;7656577;32;39453;-75
2022/06/15 00:20:57;;;;;;;4.43;1.52;;;;;;;16.24;50.65;100273.22;7656398;32;40838;-75
2022/06/15 00:25:13;;;;;;;2.80;1.50;;;;;;;16.44;49.95;100272.91;7656694;32;37807;-74
2022/06/15 00:29:30;;;;;;;3.40;1.67;;;;;;;16.29;49.36;100268.47;7656539;32;37084;-74
2022/06/15 00:33:47;;;;;;;3.05;1.45;;;;;;;16.17;49.49;100267.28;7655861;32;40011;-74
2022/06/15 00:38:03;;;;;;;1.98;1.45;;;;;;;15.96;49.39;100264.81;7656161;32;39904;-74
2022/06/15 00:42:20;;;;;;;2.37;1.70;;;;;;;16.12;48.79;100268.16;7656563;32;38793;-75
2022/06/15 00:46:42;;;;;;;4.43;1.90;;;;;;;15.95;49.50;100272.25;7655782;32;38052;-74
2022/06/15 00:50:58;;;;;;;3.03;1.73;;;;;;;15.79;50.03;100278.25;7656113;32;40143;-75
2022/06/15 00:55:25;;;;;;;3.12;1.67;;;;;;;15.65;50.98;100273.44;7655888;32;39592;-75
2022/06/15 00:59:53;;;;;;;7.70;1.90;;;;;;;16.02;50.00;100266.38;7655384;32;37885;-75
2022/06/15 01:04:09;;;;;;;1.87;1.40;;;;;;;15.99;50.54;100278.00;7643003;32;38259;-75
2022/06/15 01:08:28;;;;;;;1.95;1.60;;;;;;;15.95;50.35;100271.44;7641684;32;39099;-75
2022/06/15 01:12:55;;;;;;;2.50;1.60;;;;;;;16.05;49.50;100271.28;7655319;32;40793;-75
2022/06/15 01:17:39;;;;;;;2.08;1.42;;;;;;;15.70;50.37;100270.63;7659101;32;37788;-75
2022/06/15 01:22:12;;;;;;;2.53;1.90;;;;;;;15.71;50.55;100264.03;7659084;32;36987;-75
2022/06/15 01:26:51;;;;;;;3.20;1.62;;;;;;;15.42;51.52;100275.09;7659241;32;40201;-75
2022/06/15 01:31:34;;;;;;;1.77;1.67;;;;;;;15.33;51.71;100283.16;7659007;32;39938;-75
2022/06/15 01:36:24;;;;;;;2.45;1.60;;;;;;;14.99;53.33;100289.53;7658565;32;38085;-73
2022/06/15 01:40:41;;;;;;;2.47;1.87;;;;;;;15.21;52.70;100291.81;7650613;32;37130;-75
2022/06/15 01:45:07;;;;;;;4.03;1.77;;;;;;;15.15;52.91;100284.72;7659042;32;40075;-74
2022/06/15 01:49:30;;;;;;;4.50;2.20;;;;;;;15.48;51.95;100287.66;7658768;32;40656;-75
2022/06/15 01:54:05;;;;;;;3.43;1.80;;;;;;;15.10;53.21;100287.50;7658462;32;38724;-75
2022/06/15 01:58:25;;;;;;;2.33;1.87;;;;;;;15.30;52.47;100288.44;7659039;32;36796;-74
2022/06/15 02:03:00;;;;;;;3.10;2.10;;;;;;;15.34;52.23;100279.28;7645838;32;39548;-75
2022/06/15 02:07:34;;;;;;;4.80;2.22;;;;;;;15.03;53.28;100278.81;7658975;32;40023;-74
2022/06/15 02:11:51;;;;;;;2.25;2.00;;;;;;;14.85;54.01;100288.59;7646687;32;37941;-74
2022/06/15 02:16:19;;;;;;;2.42;1.70;;;;;;;14.98;53.59;100293.38;7645525;32;37043;-73
2022/06/15 02:20:44;;;;;;;2.22;1.75;;;;;;;14.93;53.36;100301.66;7658885;32;39788;-74
2022/06/15 02:25:07;;;;;;;3.55;1.55;;;;;;;14.97;53.03;100301.91;7657984;32;40734;-74
2022/06/15 02:29:25;;;;;;;2.27;1.90;;;;;;;14.85;53.48;100296.81;7658159;32;37820;-74
2022/06/15 02:33:54;;;;;;;2.78;1.95;;;;;;;14.77;53.47;100302.94;7644775;32;36065;-74
2022/06/15 02:38:10;;;;;;;2.58;1.70;;;;;;;14.79;53.76;100306.19;7636592;32;40166;-74
2022/06/15 02:42:40;;;;;;;6.53;2.00;;;;;;;15.01;52.69;100301.06;7658335;32;39910;-75
2022/06/15 02:46:57;;;;;;;4.12;2.08;;;;;;;14.54;53.56;100304.44;7655907;32;38678;-74
2022/06/15 02:51:25;;;;;;;2.47;1.80;;;;;;;14.59;53.44;100301.69;7657894;32;36945;-74
2022/06/15 02:55:43;;;;;;;2.08;1.60;;;;;;;14.67;53.51;100309.31;7657925;32;39164;-75
2022/06/15 02:59:59;;;;;;;3.00;1.92;;;;;;;14.80;53.02;100303.16;7657804;32;39987;-75
2022/06/15 03:04:15;;;;;;;3.10;1.80;;;;;;;14.81;53.36;100307.56;7657863;32;37768;-75
2022/06/15 03:08:31;;;;;;;3.15;1.67;;;;;;;14.30;55.08;100312.53;7657921;32;37550;-74
2022/06/15 03:12:48;;;;;;;7.80;2.20;;;;;;;14.40;54.36;100315.22;7657632;32;39929;-75
2022/06/15 03:17:04;;;;;;;3.08;1.85;;;;;;;14.44;54.32;100311.63;7644252;32;40203;-76
2022/06/15 03:21:21;;;;;;;2.87;1.90;;;;;;;14.46;54.12;100312.16;7657525;32;38090;-75
2022/06/15 03:25:38;;;;;;;4.20;1.83;;;;;;;14.41;53.75;100312.19;7657637;32;37584;-75
2022/06/15 03:29:54;;;;;;;3.12;2.00;;;;;;;14.37;53.92;100319.38;7657630;32;39583;-74
2022/06/15 03:34:10;;;;;;;2.08;1.80;;;;;;;14.37;53.76;100322.13;7657394;32;40038;-75
2022/06/15 03:38:28;;;;;;;3.40;1.70;;;;;;;14.49;53.64;100316.28;7657123;32;38058;-75
2022/06/15 03:42:44;;;;;;;2.70;2.00;;;;;;;14.57;53.46;100318.41;7643896;32;35986;-73
2022/06/15 03:47:00;;;;;;;6.22;2.00;;;;;;;14.51;53.24;100316.00;7657483;32;40005;-74
2022/06/15 03:51:16;;;;;;;3.28;2.00;;;;;;;14.48;53.66;100313.81;7657203;32;40830;-74
2022/06/15 03:55:33;;;;;;;2.00;1.83;;;;;;;14.51;53.99;100321.47;7656963;32;37998;-75
2022/06/15 03:59:50;;;;;;;2.10;1.80;;;;;;;14.54;54.22;100318.16;7656839;32;37031;-74
2022/06/15 04:04:06;;;;;;;2.45;1.73;;;;;;;14.55;54.06;100325.28;7656475;32;40509;-75
2022/06/15 04:08:35;;;;;;;2.12;1.90;;;;;;;14.69;53.68;100329.03;7656653;32;40740;-74
2022/06/15 04:12:51;;;;;;;5.50;1.90;;;;;;;14.69;54.36;100325.50;7628165;32;37757;-74
2022/06/15 04:17:09;;;;;;;4.30;2.03;;;;;;;14.64;54.60;100326.34;7656574;32;37521;-74
2022/06/15 04:21:26;;;;;;;3.65;1.80;;;;;;;14.76;54.75;100329.56;7643096;32;39406;-75
2022/06/15 04:25:51;;;;;;;2.72;1.80;;;;;;;14.95;54.41;100324.19;7656406;32;40033;-74
2022/06/15 04:30:13;;;;;;;2.47;1.95;;;;;;;15.09;54.20;100323.50;7644211;32;38848;-74
2022/06/15 04:34:29;;;;;;;3.50;2.00;;;;;;;14.94;55.26;100325.28;7656183;32;37147;-74
2022/06/15 04:38:45;;;;;;;3.28;2.00;;;;;;;15.13;55.16;100330.06;7649571;32;39100;-74
2022/06/15 04:43:02;;;;;;;3.12;1.77;;;;;;;15.10;55.80;100333.38;7655938;32;40504;-74
2022/06/15 04:47:18;;;;;;;6.55;2.00;;;;;;;15.41;55.05;100325.66;7656144;32;38375;-74
2022/06/15 04:51:41;;;;;;;14.40;2.50;;;;;;;15.51;55.22;100322.78;7658475;32;37819;-75
2022/06/15 04:55:57;;;;;;;7.18;1.80;;;;;;;15.65;54.83;100319.34;7659832;32;40050;-74
2022/06/15 05:00:16;;;;;;;2.35;1.90;;;;;;;15.82;53.21;100316.16;7658906;32;40606;-73
2022/06/15 05:04:33;;;;;;;7.00;1.98;;;;;;;16.20;52.61;100322.53;7658902;32;37923;-72
2022/06/15 05:08:49;;;;;;;5.25;1.80;;;;;;;16.33;52.28;100323.69;7659304;32;37040;-73
2022/06/15 05:13:05;;;;;;;3.50;1.75;;;;;;;16.04;53.45;100321.91;7658993;32;39440;-73
2022/06/15 05:17:23;;;;;;;15.63;8.65;;;;;;;16.35;52.41;100318.75;7659048;32;39636;-73
2022/06/15 05:21:43;;;;;;;7.00;2.90;;;;;;;16.53;51.36;100317.91;7658945;32;37762;-73
2022/06/15 05:26:00;;;;;;;4.57;1.92;;;;;;;16.45;51.79;100321.34;7658838;32;36709;-73
2022/06/15 05:30:16;;;;;;;3.37;1.65;;;;;;;16.93;50.72;100325.81;7658674;32;39379;-73
2022/06/15 05:34:33;;;;;;;8.65;2.00;;;;;;;17.24;48.92;100322.53;7658743;32;40940;-74
2022/06/15 05:38:49;;;;;;;2.60;1.83;;;;;;;17.12;48.29;100319.47;7658800;32;38059;-74
2022/06/15 05:43:05;;;;;;;2.80;1.55;;;;;;;17.42;47.61;100318.09;7658671;32;38204;-73
2022/06/15 05:47:22;;;;;;;2.12;1.60;;;;;;;17.61;47.55;100318.81;7659071;32;39080;-73
2022/06/15 05:51:38;;;;;;;3.60;1.70;;;;;;;18.02;47.90;100320.75;7659018;32;39977;-74
2022/06/15 05:55:54;;;;;;;2.80;1.70;;;;;;;18.20;48.76;100312.66;7658633;32;38763;-73
2022/06/15 06:00:11;;;;;;;5.30;2.62;;;;;;;18.36;48.74;100322.19;7658369;32;36777;-73
2022/06/15 06:04:27;;;;;;;3.00;1.77;;;;;;;18.32;50.04;100329.47;7659188;32;39024;-73
2022/06/15 06:08:45;;;;;;;4.95;1.83;;;;;;;17.98;51.11;100325.25;7658949;32;40804;-74
2022/06/15 06:13:01;;;;;;;5.43;2.10;;;;;;;18.33;50.66;100331.13;7658764;32;38599;-73
2022/06/15 06:17:17;;;;;;;5.95;1.80;;;;;;;18.65;49.34;100320.97;7655709;32;36989;-73
2022/06/15 06:21:33;;;;;;;3.72;2.03;;;;;;;18.96;49.05;100328.53;7655378;32;39199;-74
2022/06/15 06:25:51;;;;;;;4.30;1.65;;;;;;;18.79;49.46;100325.63;7657358;32;39556;-74
2022/06/15 06:30:09;;;;;;;7.47;2.10;;;;;;;19.34;47.51;100328.09;7644204;32;37994;-74
2022/06/15 06:34:26;;;;;;;7.95;2.12;;;;;;;19.30;48.40;100324.38;7658770;32;36469;-74
2022/06/15 06:38:42;;;;;;;5.32;2.35;;;;;;;19.45;47.52;100329.44;7658765;32;40085;-74
2022/06/15 06:42:59;;;;;;;5.47;1.83;;;;;;;19.62;47.46;100330.66;7658573;32;40768;-74
2022/06/15 06:47:15;;;;;;;5.65;1.52;;;;;;;20.05;47.29;100336.34;7658588;32;37989;-74
2022/06/15 06:51:33;;;;;;;8.43;1.70;;;;;;;20.41;46.58;100318.66;7658568;32;37894;-74
2022/06/15 06:55:49;;;;;;;6.03;1.70;;;;;;;20.35;46.32;100321.91;7658455;32;39464;-74
2022/06/15 07:00:06;;;;;;;3.40;1.77;;;;;;;20.32;46.27;100322.56;7658274;32;40817;-73
2022/06/15 07:04:22;;;;;;;2.42;1.60;;;;;;;20.61;45.60;100314.44;7658349;32;38758;-73
2022/06/15 07:08:38;;;;;;;5.25;2.00;;;;;;;20.85;46.08;100313.09;7658362;32;37854;-74
2022/06/15 07:12:54;;;;;;;4.03;1.50;;;;;;;20.69;43.54;100328.63;7657038;32;40145;-74
2022/06/15 07:17:10;;;;;;;6.45;1.83;;;;;;;20.68;43.83;100326.97;7657499;32;39997;-73
2022/06/15 07:21:32;;;;;;;1.87;1.60;;;;;;;21.17;43.87;100322.03;7657208;32;38022;-74
2022/06/15 07:25:48;;;;;;;3.25;1.42;;;;;;;21.37;42.95;100320.50;7657746;32;37525;-75
2022/06/15 07:30:12;;;;;;;3.15;1.50;;;;;;;21.54;41.67;100317.69;7657869;32;39559;-75
2022/06/15 07:34:28;;;;;;;3.97;1.62;;;;;;;22.04;41.32;100320.84;7658168;32;40057;-75
2022/06/15 07:38:44;;;;;;;3.45;1.48;;;;;;;22.15;39.47;100318.50;7657773;32;38047;-76
2022/06/15 07:43:00;;;;;;;3.05;1.50;;;;;;;22.58;37.66;100309.06;7657716;32;36990;-76
2022/06/15 07:51:55;;;;;;;2.22;1.30;;;;;;;22.58;35.74;100315.41;7657112;32;40505;-77
2022/06/15 07:56:11;;;;;;;1.98;1.50;;;;;;;23.03;34.57;100311.06;7657325;32;38719;-76
2022/06/15 08:00:28;;;;;;;3.10;1.35;;;;;;;23.41;32.89;100304.44;7657339;32;38046;-76
2022/06/15 08:04:44;;;;;;;4.40;1.80;;;;;;;23.30;33.86;100308.81;7657167;32;39300;-75
2022/06/15 08:09:01;;;;;;;3.67;1.62;;;;;;;23.29;31.09;100310.78;7657187;32;39956;-76
2022/06/15 08:13:19;;;;;;;2.05;1.20;;;;;;;23.17;29.93;100311.59;7656593;32;37907;-76
2022/06/15 08:17:38;;;;;;;6.07;1.33;;;;;;;23.25;28.78;100315.44;7655828;32;37105;-76
2022/06/15 08:22:01;;;;;;;2.53;1.70;;;;;;;23.49;29.68;100306.31;7655754;32;39493;-76
2022/06/15 08:26:21;;;;;;;5.00;1.40;;;;;;;23.31;28.65;100310.47;7647041;32;40084;-76
2022/06/15 08:30:38;;;;;;;7.18;1.65;;;;;;;23.66;28.17;100310.00;7646897;32;37934;-76
2022/06/15 08:34:54;;;;;;;1.60;1.25;;;;;;;23.81;30.10;100306.56;7660219;32;37119;-76
2022/06/15 08:39:10;;;;;;;3.83;1.30;;;;;;;24.24;29.93;100299.53;7660001;32;40192;-76
2022/06/15 08:43:38;;;;;;;3.97;1.48;;;;;;;24.70;30.48;100297.31;7660196;32;38828;-77
2022/06/15 08:48:24;;;;;;;2.17;1.30;;;;;;;24.84;31.25;100296.91;7659886;32;37948;-76
2022/06/15 08:52:53;;;;;;;2.25;1.27;;;;;;;24.61;28.98;100296.66;7659945;32;37802;-76
2022/06/15 08:57:28;;;;;;;2.70;1.40;;;;;;;25.08;27.84;100295.97;7647460;32;39282;-76
2022/06/15 09:02:21;;;;;;;2.62;1.42;;;;;;;24.73;26.94;100290.22;7659721;32;40013;-76
2022/06/15 09:07:02;;;;;;;2.05;1.20;;;;;;;24.84;27.90;100290.53;7659800;32;38663;-76
2022/06/15 09:11:37;;;;;;;3.78;1.40;;;;;;;24.19;29.36;100299.78;7659645;32;37001;-75
2022/06/15 09:16:12;;;;;;;3.65;1.40;;;;;;;23.94;28.87;100297.03;7659079;32;39859;-76
2022/06/15 09:20:45;;;;;;;2.45;1.27;;;;;;;24.53;28.93;100290.03;7634455;32;40743;-76
2022/06/15 09:25:09;;;;;;;2.97;1.50;;;;;;;24.41;28.33;100283.72;7647137;32;38115;-76
2022/06/15 09:29:41;;;;;;;1.40;1.12;;;;;;;24.40;26.94;100279.28;7659470;32;37987;-76
2022/06/15 09:34:04;;;;;;;3.15;1.37;;;;;;;24.90;28.41;100280.72;7659513;32;41112;-76
2022/06/15 09:38:20;;;;;;;3.90;1.10;;;;;;;24.78;28.32;100284.37;7646287;32;40000;-76
2022/06/15 09:42:55;;;;;;;2.40;1.48;;;;;;;24.98;27.91;100287.31;7659208;32;38798;-76
2022/06/15 09:47:36;;;;;;;2.97;1.30;;;;;;;25.01;28.37;100287.41;7658631;32;36900;-77
2022/06/15 09:52:07;;;;;;;4.90;1.40;;;;;;;25.26;26.49;100290.06;7659185;32;39469;-75
2022/06/15 09:56:24;;;;;;;4.90;1.20;;;;;;;25.69;27.10;100279.94;7659212;32;39990;-76
2022/06/15 10:00:43;;;;;;;4.78;1.05;;;;;;;24.81;24.81;100275.31;7645696;32;38788;-77
2022/06/15 10:05:02;;;;;;;1.75;0.95;;;;;;;25.60;26.00;100271.78;7658758;32;36802;-76
2022/06/15 10:09:21;;;;;;;1.25;0.93;;;;;;;25.84;24.80;100267.16;7659089;32;38417;-76
2022/06/15 10:13:38;;;;;;;1.65;0.98;;;;;;;25.68;24.37;100269.94;7658630;32;40755;-76
2022/06/15 10:17:57;;;;;;;4.32;1.00;;;;;;;26.08;25.59;100254.13;7659094;32;38858;-76
2022/06/15 10:22:26;;;;;;;2.15;1.05;;;;;;;26.23;25.88;100259.66;7645664;32;36833;-76
2022/06/15 10:26:52;;;;;;;3.70;1.40;;;;;;;26.27;23.99;100251.34;7645531;32;40042;-77
2022/06/15 10:31:13;;;;;;;2.55;1.23;;;;;;;26.80;25.53;100256.41;7658809;32;40083;-75
2022/06/15 10:35:34;;;;;;;2.72;1.08;;;;;;;26.18;23.70;100245.97;7645364;32;38641;-76
2022/06/15 10:39:52;;;;;;;2.22;1.17;;;;;;;26.78;24.26;100242.78;7645333;32;37075;-76
2022/06/15 10:44:12;;;;;;;1.52;0.93;;;;;;;26.97;23.65;100241.97;7658231;32;39288;-76
2022/06/15 10:48:41;;;;;;;3.62;1.10;;;;;;;27.23;25.37;100242.38;7644509;32;40202;-76
2022/06/15 10:53:04;;;;;;;3.28;1.10;;;;;;;26.75;24.96;100246.34;7645244;32;38508;-76
2022/06/15 11:02:32;;;;;;;2.15;1.00;;;;;;;27.61;22.75;100227.41;7658248;32;39385;-76
2022/06/15 11:07:05;;;;;;;2.60;1.00;;;;;;;27.21;23.00;100233.53;7658148;32;40811;-76
2022/06/15 11:11:26;;;;;;;1.67;0.95;;;;;;;27.58;23.09;100230.16;7657281;32;38100;-76
2022/06/15 11:20:45;;;;;;;3.37;1.30;;;;;;;27.73;23.62;100213.19;7635607;32;38008;-76
2022/06/15 11:25:16;;;;;;;1.67;1.10;;;;;;;27.98;23.92;100211.97;7658132;32;40070;-76
2022/06/15 11:29:44;;;;;;;3.05;1.10;;;;;;;27.74;22.67;100205.59;7639895;32;38139;-76
2022/06/15 11:34:05;;;;;;;3.20;1.15;;;;;;;27.71;22.36;100207.16;7635039;32;37497;-76
2022/06/15 11:39:00;;;;;;;3.90;1.12;;;;;;;27.93;23.52;100201.88;7657463;32;39347;-76
2022/06/15 11:43:18;;;;;;;1.65;1.12;;;;;;;27.50;22.53;100198.44;7648384;32;39991;-76
2022/06/15 11:47:47;;;;;;;1.40;0.75;;;;;;;27.68;23.50;100196.72;7657569;32;36883;-76
2022/06/15 11:52:15;;;;;;;0.88;0.85;;;;;;;27.29;22.78;100196.94;7656558;32;37844;-74
2022/06/15 11:56:48;;;;;;;2.55;0.80;;;;;;;27.56;22.21;100188.53;7657634;32;39128;-76
2022/06/15 12:01:27;;;;;;;;;;;;;;;27.96;23.34;100189.91;7616771;32;40792;-79
2022/06/15 12:06:05;;;;;;;2.65;1.02;;;;;;;28.53;24.39;100186.16;7629450;32;38942;-78
2022/06/15 12:10:41;;;;;;;2.05;0.80;;;;;;;28.94;21.56;100175.78;7618727;32;37804;-79
2022/06/15 12:15:08;;;;;;;2.40;0.90;;;;;;;28.15;21.05;100179.72;7629056;32;39401;-79
2022/06/15 12:19:43;;;;;;;0.52;0.50;;;;;;;28.39;20.14;100175.59;7616740;32;39898;-79
2022/06/15 12:24:21;;;;;;;1.62;0.95;;;;;;;28.69;22.07;100175.53;7628081;32;38151;-79
2022/06/15 12:28:44;;;;;;;1.65;0.70;;;;;;;28.79;21.32;100166.41;7616027;32;37279;-78
2022/06/15 12:33:28;;;;;;;2.72;0.85;;;;;;;28.60;21.98;100161.84;7628334;32;40294;-78
2022/06/15 12:38:13;;;;;;;1.77;0.82;;;;;;;29.28;21.73;100161.63;7617029;32;39869;-79
2022/06/15 12:42:29;;;;;;;2.67;0.80;;;;;;;29.68;21.28;100153.44;7616842;32;37992;-79
2022/06/15 12:46:47;;;;;;;3.00;0.80;;;;;;;30.17;21.29;100149.25;7614817;32;37031;-79
2022/06/15 12:51:34;;;;;;;1.27;0.70;;;;;;;30.50;19.09;100150.16;7616708;32;40455;-79
2022/06/15 12:55:56;;;;;;;6.07;1.20;;;;;;;29.84;18.75;100156.75;7615152;32;39815;-79
2022/06/15 13:00:27;;;;;;;2.12;0.85;;;;;;;29.54;19.56;100152.16;7614900;32;37889;-79
2022/06/15 13:04:56;;;;;;;4.30;0.80;;;;;;;30.04;19.47;100162.06;7608643;32;36800;-79
2022/06/15 13:09:19;;;;;;;4.90;0.95;;;;;;;30.07;20.12;100145.19;7614219;32;39456;-79
2022/06/15 13:13:40;;;;;;;1.15;0.70;;;;;;;30.33;17.57;100143.25;7611527;32;217594;-79
2022/06/15 13:18:11;;;;;;;4.53;0.85;;;;;;;30.11;16.76;100148.03;7633505;32;38887;-79
2022/06/15 13:22:32;;;;;;;4.23;1.00;;;;;;;30.09;17.17;100142.00;7620998;32;37750;-79
2022/06/15 13:26:55;;;;;;;1.80;0.80;;;;;;;30.21;17.47;100136.00;7633141;32;40205;-79
2022/06/15 13:31:44;;;;;;;2.72;1.17;;;;;;;29.52;18.72;100142.53;7619950;32;39984;-79
2022/06/15 13:36:13;;;;;;;1.08;0.90;;;;;;;29.31;19.08;100143.19;7632508;32;37891;-79
2022/06/15 13:40:53;;;;;;;1.55;0.85;;;;;;;29.71;18.07;100135.78;7633108;32;37822;-79
2022/06/15 13:45:33;;;;;;;0.95;0.80;;;;;;;29.56;18.61;100132.91;7632493;32;40174;-79
2022/06/15 13:49:53;;;;;;;3.92;0.75;;;;;;;29.22;19.12;100132.31;7632940;32;39934;-79
2022/06/15 13:54:21;;;;;;;0.47;0.47;;;;;;;29.31;18.36;100131.97;7656401;32;37870;-79
2022/06/15 13:59:15;;;;;;;2.67;0.82;;;;;;;29.58;18.97;100127.72;7658627;32;38049;-78
2022/06/15 14:03:59;;;;;;;2.90;0.80;;;;;;;29.66;19.64;100120.09;7609475;32;38866;-78
2022/06/15 14:08:44;;;;;;;0.80;0.68;;;;;;;29.70;20.51;100115.34;7629192;32;40843;-78
2022/06/15 14:13:21;;;;;;;1.60;0.80;;;;;;;29.80;19.52;100112.97;7643297;32;38766;-79
2022/06/15 14:18:23;;;;;;;2.40;0.82;;;;;;;30.34;18.62;100105.50;7648622;32;36971;-79
2022/06/15 14:22:52;;;;;;;0.85;0.65;;;;;;;29.85;19.36;100104.16;7639049;32;39368;-77
2022/06/15 14:27:32;;;;;;;1.02;0.60;;;;;;;30.33;19.73;100101.87;7657547;32;40216;-77
2022/06/15 14:31:57;;;;;;;0.75;0.60;;;;;;;29.75;19.26;100102.88;7658437;32;38721;-78
2022/06/15 14:36:17;;;;;;;1.70;0.70;;;;;;;30.24;20.00;100093.03;7657444;32;37029;-77
2022/06/15 14:40:39;;;;;;;2.87;1.10;;;;;;;30.40;19.50;100098.31;7658316;32;39476;-78
2022/06/15 14:45:12;;;;;;;1.58;0.70;;;;;;;30.77;18.62;100087.87;7657876;32;40668;-78
2022/06/15 14:49:32;;;;;;;0.80;0.70;;;;;;;31.25;17.62;100087.44;7656441;32;37865;-77
2022/06/15 14:53:57;;;;;;;1.92;1.00;;;;;;;31.27;18.83;100091.47;7631470;32;37187;-78
2022/06/15 14:58:21;;;;;;;1.30;0.93;;;;;;;31.54;20.28;100090.19;7657868;32;39413;-78
2022/06/15 15:02:49;;;;;;;1.80;0.70;;;;;;;31.31;18.17;100085.81;7656804;32;39933;-79
2022/06/15 15:12:08;;;;;;;2.53;0.50;;;;;;;31.14;18.01;100075.41;7658070;32;37110;-70
2022/06/15 15:16:52;;;;;;;3.03;0.47;;;;;;;31.36;17.08;100070.53;7657476;32;38886;-81
2022/06/15 15:21:35;;;;;;;5.03;0.90;;;;;;;30.73;17.38;100073.00;7655759;32;39776;-72
2022/06/15 15:25:54;;;;;;;2.72;0.80;;;;;;;31.04;18.26;100075.00;7657940;32;37992;-72
2022/06/15 15:35:12;;;;;;;1.20;0.90;;;;;;;31.56;19.44;100063.22;7657402;32;39940;-72
2022/06/15 15:39:28;;;;;;;10.57;1.30;;;;;;;31.36;16.44;100060.06;7657639;32;39977;-74
2022/06/15 15:43:44;;;;;;;5.70;1.00;;;;;;;31.59;17.16;100061.59;7657606;32;38003;-79
2022/06/15 15:48:01;;;;;;;2.70;0.88;;;;;;;31.42;17.89;100055.59;7657759;32;37075;-80
2022/06/15 15:52:20;;;;;;;2.78;0.65;;;;;;;31.04;18.47;100052.47;7657793;32;39490;-80
2022/06/15 15:56:39;;;;;;;1.37;0.57;;;;;;;30.46;18.07;100053.72;7656974;32;39950;-79
2022/06/15 16:00:55;;;;;;;0.95;0.60;;;;;;;30.33;19.12;100056.88;7643769;32;37030;-79
2022/06/15 16:05:11;;;;;;;0.82;0.50;;;;;;;30.25;17.97;100046.87;7656330;32;37693;-79
2022/06/15 16:09:27;;;;;;;0.85;0.65;;;;;;;30.17;18.66;100042.44;7657031;32;39032;-80
2022/06/15 16:13:43;;;;;;;3.03;0.80;;;;;;;30.00;17.64;100038.38;7656750;32;39702;-79
2022/06/15 16:18:01;;;;;;;2.67;0.82;;;;;;;30.16;18.79;100038.00;7656427;32;38413;-79
2022/06/15 16:22:17;;;;;;;2.35;0.90;;;;;;;29.74;19.91;100033.87;7664986;32;37913;-79
2022/06/15 16:26:34;;;;;;;2.62;0.85;;;;;;;29.63;19.26;100024.59;7669728;32;40006;-79
2022/06/15 16:30:51;;;;;;;2.92;0.70;;;;;;;29.25;20.33;100027.63;7669741;32;39889;-79
2022/06/15 16:35:09;;;;;;;10.25;1.17;;;;;;;29.70;20.35;100028.25;7659958;32;38155;-81
2022/06/15 16:39:25;;;;;;;1.98;0.90;;;;;;;29.55;21.03;100029.41;7643298;32;36136;-78
2022/06/15 16:43:45;;;;;;;2.70;0.65;;;;;;;29.75;19.82;100025.06;7656473;32;39439;-79
2022/06/15 16:48:02;;;;;;;0.93;0.70;;;;;;;29.91;19.54;100030.34;7659681;32;39740;-79
2022/06/15 16:52:18;;;;;;;1.85;0.88;;;;;;;29.70;20.07;100030.22;7659847;32;38007;-79
2022/06/15 16:56:47;;;;;;;4.10;0.88;;;;;;;29.65;20.63;100023.00;7646417;32;38101;-79
2022/06/15 17:01:03;;;;;;;3.10;0.80;;;;;;;29.63;20.18;100013.34;7659387;32;40094;-79
2022/06/15 17:05:19;;;;;;;6.62;0.98;;;;;;;29.44;20.28;100018.09;7659294;32;40955;-78
2022/06/15 17:09:36;;;;;;;2.55;0.73;;;;;;;29.54;20.98;100017.34;7659474;32;37665;-79
2022/06/15 17:13:52;;;;;;;1.95;0.62;;;;;;;29.39;20.42;100015.69;7645533;32;37841;-78
2022/06/15 17:18:08;;;;;;;2.15;0.82;;;;;;;29.18;20.81;100022.00;7659506;32;39403;-79
2022/06/15 17:22:24;;;;;;;2.50;0.60;;;;;;;29.31;22.11;100009.22;7659149;32;40844;-79
2022/06/15 17:26:59;;;;;;;2.95;0.88;;;;;;;29.49;21.97;100014.13;7659337;32;37587;-79
2022/06/15 17:31:20;;;;;;;1.20;0.70;;;;;;;29.37;21.86;100009.66;7645952;32;37097;-79
2022/06/15 17:35:37;;;;;;;2.85;0.62;;;;;;;29.36;21.93;100008.06;7645925;32;39497;-79
2022/06/15 17:39:53;;;;;;;1.80;0.93;;;;;;;28.91;22.35;100013.81;7659263;32;40433;-77
2022/06/15 17:44:16;;;;;;;1.30;0.73;;;;;;;28.76;22.75;100018.50;7648797;32;37385;-77
2022/06/15 17:48:32;;;;;;;2.45;0.70;;;;;;;28.44;24.58;100018.22;7645348;32;37873;-78
2022/06/15 17:52:48;;;;;;;1.02;0.80;;;;;;;28.14;25.12;100009.97;7658805;32;40018;-79
2022/06/15 17:57:05;;;;;;;4.12;0.93;;;;;;;27.89;25.46;100007.72;7654958;32;39823;-78
2022/06/15 18:01:21;;;;;;;2.47;1.00;;;;;;;27.63;25.94;100014.22;7634825;32;38053;-77
2022/06/15 18:05:38;;;;;;;3.15;1.12;;;;;;;27.56;25.83;100014.13;7645394;32;37718;-77
2022/06/15 18:09:54;;;;;;;3.40;1.10;;;;;;;27.18;26.24;100022.41;7644530;32;39391;-78
2022/06/15 18:14:20;;;;;;;2.92;1.15;;;;;;;27.12;27.46;100026.75;7658201;32;40050;-77
2022/06/15 18:18:37;;;;;;;6.85;1.30;;;;;;;26.75;29.20;100033.81;7644589;32;38912;-78
2022/06/15 18:22:54;;;;;;;10.05;1.60;;;;;;;26.41;29.79;100035.62;7657879;32;37276;-78
2022/06/15 18:27:10;;;;;;;1.05;0.80;;;;;;;26.40;29.67;100022.81;7657800;32;39422;-77
2022/06/15 18:31:27;;;;;;;4.20;1.30;;;;;;;26.10;30.25;100031.91;7655863;32;39834;-77
2022/06/15 18:35:45;;;;;;;3.30;0.95;;;;;;;26.10;31.32;100037.47;7658491;32;38840;-78
2022/06/15 18:40:02;;;;;;;7.07;1.17;;;;;;;25.94;32.35;100039.53;7643918;32;37799;-77
2022/06/15 18:48:53;;;;;;;1.90;0.82;;;;;;;25.55;33.43;100039.56;7632459;32;40179;-80
2022/06/15 18:53:10;;;;;;;14.48;1.58;;;;;;;25.32;33.94;100034.72;7632105;32;37965;-75
2022/06/15 18:57:28;;;;;;;4.43;1.00;;;;;;;24.89;35.04;100039.31;7632059;32;37826;-81
2022/06/15 19:01:44;;;;;;;3.75;1.42;;;;;;;24.71;35.00;100041.66;7618639;32;39370;-79
2022/06/15 19:06:01;;;;;;;3.10;1.23;;;;;;;24.38;35.76;100042.81;7631974;32;40132;-79
2022/06/15 19:10:18;;;;;;;1.05;0.80;;;;;;;24.26;36.13;100048.47;7654539;32;37944;-82
2022/06/15 19:14:35;;;;;;;1.20;1.10;;;;;;;24.15;36.70;100053.78;7658181;32;35266;-82
2022/06/15 19:18:52;;;;;;;3.40;1.40;;;;;;;23.98;36.26;100058.50;7657942;32;39123;-81
2022/06/15 19:23:08;;;;;;;7.72;1.55;;;;;;;23.78;36.74;100056.69;7657887;32;39970;-76
2022/06/15 19:27:24;;;;;;;3.50;1.62;;;;;;;23.67;38.79;100066.75;7642138;32;38759;-72
2022/06/15 19:31:43;;;;;;;4.10;1.30;;;;;;;23.49;39.82;100080.94;7645932;32;37085;-73
2022/06/15 19:36:01;;;;;;;3.70;1.60;;;;;;;23.22;39.92;100083.31;7657032;32;39001;-73
2022/06/15 19:40:22;;;;;;;2.97;1.05;;;;;;;22.86;39.59;100084.94;7656826;32;38173;-74
2022/06/15 19:44:38;;;;;;;2.20;1.12;;;;;;;22.77;38.97;100092.56;7640851;32;38812;-73
2022/06/15 19:48:54;;;;;;;2.30;1.12;;;;;;;22.67;39.12;100102.16;7654182;32;37327;-73
2022/06/15 19:53:11;;;;;;;3.45;1.45;;;;;;;22.65;39.49;100090.59;7656771;32;40111;-72
2022/06/15 19:57:27;;;;;;;2.28;1.17;;;;;;;22.40;39.87;100092.53;7657139;32;39738;-73
2022/06/15 20:01:54;;;;;;;2.40;1.10;;;;;;;22.12;40.40;100095.91;7656636;32;37737;-73
2022/06/15 20:06:13;;;;;;;6.60;1.30;;;;;;;22.02;40.24;100096.31;7656346;32;37652;-73
2022/06/15 20:10:30;;;;;;;2.25;1.10;;;;;;;21.95;40.17;100101.63;7656134;32;39349;-73
2022/06/15 20:14:46;;;;;;;1.48;1.15;;;;;;;21.87;40.68;100105.28;7656139;32;40820;-74
2022/06/15 20:19:02;;;;;;;2.47;1.42;;;;;;;21.52;42.26;100098.06;7656940;32;38052;-75
2022/06/15 20:23:24;;;;;;;4.68;1.30;;;;;;;21.38;42.93;100112.16;7659151;32;36627;-74
2022/06/15 20:27:50;;;;;;;4.00;1.20;;;;;;;21.13;42.94;100102.06;7659774;32;38747;-75
2022/06/15 20:32:08;;;;;;;2.08;1.30;;;;;;;21.19;41.49;100098.75;7659058;32;39980;-74
2022/06/15 20:36:26;;;;;;;3.12;1.40;;;;;;;21.06;41.89;100099.00;7659028;32;38055;-75
2022/06/15 20:40:43;;;;;;;2.78;1.42;;;;;;;21.03;42.29;100094.16;7658785;32;37814;-74
2022/06/15 20:45:03;;;;;;;1.30;1.20;;;;;;;20.99;42.18;100099.56;7658905;32;40055;-74
2022/06/15 20:49:23;;;;;;;5.10;1.50;;;;;;;20.85;42.41;100104.50;7645731;32;39750;-73